Terminal Aerodrome Forecast
Issued by NWS Flagstaff, AZ

Home | Current Version | Previous Version | Text Only | Print | Product List | Glossary On
Versions: 1 2 3 4 5 6 7 8 9 10 11 12 13 14 15 16 17 18 19
000
FTUS45 KFGZ 260500
TAFFLG
TAF
KFLG 260535Z 2606/2706 30015KT 3SM -SHSN SCT009 OVC015
     FM260700 28011KT 2SM -SHSN BR BKN005 OVC012
     FM261800 36011G18KT P6SM VCSH BKN025
     FM262100 31010G17KT P6SM BKN050=

USA.gov is the U.S. government's official web portal to all federal, state and local government web resources and services.